Curtis Field
KBBD : now visible

Airfield :











YOU CAN JOIN US ON...

 
LOGIN :

Register | Disclaimer

   EN    FR    IT 

 









Legend :    VFR   Marginal VFR   IFR   Intensive IFR   Very Intensive IFR
Visi :
Ceiling :
>= 8 km
>= 3000ft
5 to 8 km
1000 to 3000 ft
1500m to 5 km
500 to 1000 ft
800 to 1500m
200 to 500 ft
< 800m
< 200 ft
Symbols :   Thunderstorms  Fog  Heavy snow  Heavy precipitations  Wind > 20 kt






- Airport Elevation : 1827 ft


KBBD - Curtis Field

CURRENT METAR :
  • 282315Z AUTO 30019G26KT 10SM SCT029 BKN037 08/01 A2995 RMK AO2

EXPIRED METARs :
  • 282255Z AUTO 30021KT 10SM OVC029 08/02 A2995 RMK AO2
  • 282235Z AUTO 30017G26KT 10SM OVC027 08/03 A2994 RMK AO2
  • 282215Z AUTO 30018KT 10SM OVC026 08/03 A2994 RMK AO2
  • 282155Z AUTO 30016G24KT 10SM BKN019 BKN028 OVC036 08/03 A2993 RMK AO2
  • 282135Z AUTO 31018G27KT 10SM OVC018 08/03 A2993 RMK AO2
  • 282115Z AUTO 30018G28KT 10SM OVC019 08/03 A2992 RMK AO2
  • 282055Z AUTO 29019G27KT 10SM OVC018 08/04 A2991 RMK AO2
  • 282035Z AUTO 30016G26KT 10SM OVC017 08/04 A2991 RMK AO2

TAF KBBD
Valid from the 29 at 00:00 until the 30 at 00:00 UTC


282320Z 2900/2924 30018G28KT P6SM BKN025
FM290200 31017G24KT P6SM BKN040
FM290300 32015G23KT P6SM FEW250
FM290700 32012KT P6SM SKC



MET'MAP, your aeronautical weather chart ! - Copyright ORBIFLY December 2007 - Disclaimer

ORBIFLY MET'MAP TEAM :

Programming & Development : Alexandra Zaïnal
Concept & original design : Baudouin d'Aumeries
Assistance for programming : Marc-Olivier Méhu
Technical & hardware support : Manuel Goepfert

Contact : metmap@orbifly.com




SOURCES & CREDITS :

   NOAA       Earth
Advisory